createdAt,value
2018-10-19T00:00:23.710Z,17.60
2018-10-19T00:02:51.759Z,17.60
2018-10-19T00:05:19.540Z,17.60
2018-10-19T00:07:47.609Z,17.60
2018-10-19T00:10:15.648Z,17.60
2018-10-19T00:12:43.786Z,17.60
2018-10-19T00:15:11.698Z,17.60
2018-10-19T00:17:40.531Z,17.60
2018-10-19T00:20:08.994Z,17.60
2018-10-19T00:22:36.732Z,17.60
2018-10-19T00:25:05.480Z,17.60
2018-10-19T00:27:33.267Z,17.60
2018-10-19T00:30:01.073Z,17.60
2018-10-19T00:32:29.013Z,17.60
2018-10-19T00:34:57.044Z,17.60
2018-10-19T00:37:24.702Z,17.60
2018-10-19T00:39:52.590Z,17.60
2018-10-19T00:42:20.342Z,17.60
2018-10-19T00:44:48.057Z,17.50
2018-10-19T00:47:15.947Z,17.60
2018-10-19T00:49:43.899Z,17.50
2018-10-19T00:52:11.572Z,17.60
2018-10-19T00:54:39.489Z,17.50
2018-10-19T00:57:07.282Z,17.60
2018-10-19T00:59:35.569Z,17.40
2018-10-19T01:02:03.428Z,17.60
2018-10-19T01:04:31.364Z,17.60
2018-10-19T01:06:59.766Z,17.50
2018-10-19T01:09:27.763Z,17.50
2018-10-19T01:11:55.501Z,17.50
2018-10-19T01:14:23.316Z,17.60
2018-10-19T01:16:51.321Z,17.50
2018-10-19T01:19:19.048Z,17.50
2018-10-19T01:21:47.150Z,17.50
2018-10-19T01:24:14.855Z,17.50
2018-10-19T01:26:42.701Z,17.50
2018-10-19T01:29:10.570Z,17.50
2018-10-19T01:31:39.730Z,17.50
2018-10-19T01:34:07.465Z,17.50
2018-10-19T01:36:41.358Z,17.50
2018-10-19T01:39:09.657Z,17.50
2018-10-19T01:41:37.398Z,17.50
2018-10-19T01:44:06.280Z,17.50
2018-10-19T01:46:33.992Z,17.50
2018-10-19T01:49:01.634Z,17.50
2018-10-19T01:51:30.065Z,17.50
2018-10-19T01:53:57.788Z,17.50
2018-10-19T01:56:25.518Z,17.50
2018-10-19T01:58:53.680Z,17.40
2018-10-19T02:01:21.945Z,17.40
2018-10-19T02:03:49.841Z,17.40
2018-10-19T02:06:17.727Z,17.40
2018-10-19T02:08:45.414Z,17.10
2018-10-19T02:11:13.391Z,17.40
2018-10-19T02:13:41.229Z,17.40
2018-10-19T02:16:09.034Z,17.40
2018-10-19T02:18:37.026Z,17.40
2018-10-19T02:21:05.108Z,17.40
2018-10-19T02:23:32.855Z,17.40
2018-10-19T02:26:00.854Z,17.30
2018-10-19T02:28:28.696Z,17.40
2018-10-19T02:30:56.527Z,17.30
2018-10-19T02:33:24.485Z,17.30
2018-10-19T02:35:52.278Z,17.30
2018-10-19T02:38:20.196Z,17.30
2018-10-19T02:40:47.902Z,17.30
2018-10-19T02:43:15.616Z,17.30
2018-10-19T02:45:43.455Z,17.30
2018-10-19T02:48:11.806Z,17.30
2018-10-19T02:50:39.454Z,17.30
2018-10-19T02:53:07.481Z,17.20
2018-10-19T02:55:35.375Z,17.30
2018-10-19T02:58:03.525Z,17.30
2018-10-19T03:00:31.400Z,17.30
2018-10-19T03:02:59.163Z,17.30
2018-10-19T03:05:27.169Z,17.20
2018-10-19T03:07:54.858Z,17.20
2018-10-19T03:10:22.867Z,17.20
2018-10-19T03:12:51.077Z,17.20
2018-10-19T03:15:18.834Z,17.20
2018-10-19T03:17:46.661Z,17.20
2018-10-19T03:20:14.579Z,17.20
2018-10-19T03:22:42.222Z,17.20
2018-10-19T03:25:10.400Z,17.20
2018-10-19T03:27:38.199Z,17.20
2018-10-19T03:30:06.511Z,17.20
2018-10-19T03:32:34.307Z,17.20
2018-10-19T03:35:01.958Z,17.20
2018-10-19T03:37:30.238Z,17.20
2018-10-19T03:39:58.305Z,17.20
2018-10-19T03:42:26.013Z,17.10
2018-10-19T03:44:54.081Z,17.20
2018-10-19T03:47:21.984Z,17.10
2018-10-19T03:49:49.704Z,17.10
2018-10-19T03:52:17.419Z,17.10
2018-10-19T03:54:45.811Z,17.10
2018-10-19T03:57:13.478Z,17.10
2018-10-19T03:59:41.326Z,17.10
2018-10-19T04:02:09.278Z,17.10
2018-10-19T04:04:37.098Z,17.10
2018-10-19T04:07:05.369Z,17.10
2018-10-19T04:09:33.343Z,17.10
2018-10-19T04:12:01.071Z,17.10
2018-10-19T04:14:29.280Z,17.10
2018-10-19T04:16:56.968Z,17.10
2018-10-19T04:19:24.697Z,17.10
2018-10-19T04:21:52.775Z,17.10
2018-10-19T04:24:20.545Z,17.00
2018-10-19T04:26:48.251Z,17.00
2018-10-19T04:29:16.169Z,17.00
2018-10-19T04:31:43.815Z,16.70
2018-10-19T04:34:11.819Z,17.00
2018-10-19T04:36:39.517Z,17.00
2018-10-19T04:39:08.004Z,17.00
2018-10-19T04:41:36.157Z,17.00
2018-10-19T04:44:04.689Z,17.00
2018-10-19T04:46:32.443Z,17.00
2018-10-19T04:49:00.315Z,17.00
2018-10-19T04:51:28.854Z,17.00
2018-10-19T04:53:56.728Z,17.00
2018-10-19T04:56:24.566Z,17.00
2018-10-19T04:58:52.387Z,17.00
2018-10-19T05:01:20.561Z,16.90
2018-10-19T05:03:48.598Z,17.00
2018-10-19T05:06:16.416Z,17.00
2018-10-19T05:08:44.615Z,17.00
2018-10-19T05:11:12.629Z,17.00
2018-10-19T05:13:40.413Z,17.00
2018-10-19T05:16:08.065Z,17.00
2018-10-19T05:18:36.097Z,16.90
2018-10-19T05:21:04.184Z,16.90
2018-10-19T05:23:31.941Z,16.90
2018-10-19T05:25:59.806Z,16.90
2018-10-19T05:28:27.619Z,16.90
2018-10-19T05:30:56.398Z,16.90
2018-10-19T05:33:24.329Z,16.90
2018-10-19T05:35:52.336Z,16.90
2018-10-19T05:38:20.574Z,16.90
2018-10-19T05:40:48.685Z,16.90
2018-10-19T05:43:16.516Z,16.90
2018-10-19T05:45:44.406Z,16.90
2018-10-19T05:51:02.731Z,16.90
2018-10-19T05:53:30.800Z,16.80
2018-10-19T05:55:58.562Z,16.90
2018-10-19T05:58:26.504Z,16.90
2018-10-19T06:00:54.360Z,16.90
2018-10-19T06:03:22.783Z,16.80
2018-10-19T06:05:51.260Z,16.80
2018-10-19T06:08:20.282Z,16.80
2018-10-19T06:10:50.937Z,16.80
2018-10-19T06:13:19.097Z,16.80
2018-10-19T06:15:47.202Z,16.80
2018-10-19T06:18:15.835Z,16.80
2018-10-19T06:20:43.760Z,17.00
2018-10-19T06:23:11.734Z,16.80
2018-10-19T06:25:39.620Z,16.70
2018-10-19T06:28:08.360Z,16.80
2018-10-19T06:30:36.334Z,16.80
2018-10-19T06:33:04.488Z,16.80
2018-10-19T06:35:32.439Z,16.70
2018-10-19T06:38:00.499Z,16.70
2018-10-19T06:40:28.686Z,16.70
2018-10-19T06:42:58.680Z,16.70
2018-10-19T06:45:26.937Z,16.70
2018-10-19T06:47:55.077Z,16.70
2018-10-19T06:50:23.020Z,16.70
2018-10-19T06:52:53.550Z,16.70
2018-10-19T06:55:21.373Z,16.70
2018-10-19T06:57:49.650Z,16.70
2018-10-19T07:00:17.743Z,16.70
2018-10-19T07:02:45.738Z,16.70
2018-10-19T07:05:14.504Z,16.70
2018-10-19T07:07:42.828Z,16.60
2018-10-19T07:10:10.914Z,16.60
2018-10-19T07:12:39.454Z,16.60
2018-10-19T07:15:07.953Z,16.70
2018-10-19T07:17:36.157Z,16.60
2018-10-19T07:20:05.969Z,16.60
2018-10-19T07:22:33.773Z,16.60
2018-10-19T07:25:01.794Z,16.60
2018-10-19T07:27:29.591Z,16.60
2018-10-19T07:29:57.449Z,16.60
2018-10-19T07:32:25.615Z,16.70
2018-10-19T07:34:53.499Z,16.60
2018-10-19T07:37:21.508Z,16.60
2018-10-19T07:39:50.305Z,16.60
2018-10-19T07:42:18.771Z,16.60
2018-10-19T07:44:46.548Z,16.60
2018-10-19T07:47:14.591Z,16.60
2018-10-19T07:49:42.315Z,16.70
2018-10-19T07:52:10.342Z,16.70
2018-10-19T07:54:38.282Z,16.60
2018-10-19T07:57:06.071Z,16.70
2018-10-19T07:59:33.853Z,16.70
2018-10-19T08:02:01.606Z,16.70
2018-10-19T08:04:29.582Z,16.70
2018-10-19T08:06:57.613Z,16.70
2018-10-19T08:09:25.429Z,16.70
2018-10-19T08:11:53.447Z,16.70
2018-10-19T08:14:21.179Z,16.70
2018-10-19T08:16:49.148Z,16.70
2018-10-19T08:19:17.373Z,16.80
2018-10-19T08:21:45.277Z,16.70
2018-10-19T08:24:13.194Z,16.80
2018-10-19T08:26:41.148Z,16.70
2018-10-19T08:29:09.309Z,16.80
2018-10-19T08:31:37.197Z,16.80
2018-10-19T08:34:05.896Z,16.60
2018-10-19T08:36:33.646Z,16.80
2018-10-19T08:39:01.491Z,16.60
2018-10-19T08:41:29.709Z,16.80
2018-10-19T08:43:57.508Z,16.80
2018-10-19T08:46:30.934Z,16.80
2018-10-19T08:48:58.909Z,16.80
2018-10-19T08:51:26.662Z,16.90
2018-10-19T08:53:54.665Z,16.90
2018-10-19T08:56:23.164Z,16.90
2018-10-19T08:58:51.141Z,16.90
2018-10-19T09:01:19.045Z,16.90
2018-10-19T09:03:47.038Z,16.90
2018-10-19T09:06:14.938Z,17.00
2018-10-19T09:08:43.138Z,17.00
2018-10-19T09:11:10.981Z,17.00
2018-10-19T09:13:39.512Z,17.00
2018-10-19T09:16:07.527Z,17.00
2018-10-19T09:18:35.204Z,17.00
2018-10-19T09:21:03.248Z,17.00
2018-10-19T09:23:31.114Z,17.10
2018-10-19T09:25:59.082Z,17.10
2018-10-19T09:28:26.841Z,17.10
2018-10-19T09:30:54.915Z,17.10
2018-10-19T09:33:23.185Z,17.10
2018-10-19T09:35:51.066Z,17.10
2018-10-19T09:38:19.246Z,17.10
2018-10-19T09:40:47.102Z,17.10
2018-10-19T09:43:14.949Z,17.20
2018-10-19T09:45:42.983Z,17.20
2018-10-19T09:48:10.698Z,17.20
2018-10-19T09:50:39.567Z,17.20
2018-10-19T09:53:07.475Z,17.20
2018-10-19T09:55:35.192Z,17.20
2018-10-19T09:58:03.352Z,17.20
2018-10-19T10:00:37.026Z,17.20
2018-10-19T10:03:04.997Z,17.20
2018-10-19T10:05:32.980Z,17.20
2018-10-19T10:08:01.206Z,17.30
2018-10-19T10:10:28.904Z,17.30
2018-10-19T10:12:56.934Z,17.30
2018-10-19T10:15:24.823Z,17.30
2018-10-19T10:17:52.555Z,17.30
2018-10-19T10:20:20.622Z,17.30
2018-10-19T10:22:48.342Z,17.30
2018-10-19T10:25:16.034Z,17.40
2018-10-19T10:27:43.880Z,17.40
2018-10-19T10:30:12.251Z,17.00
2018-10-19T10:32:40.466Z,17.40
2018-10-19T10:35:08.953Z,17.40
2018-10-19T10:37:36.718Z,17.40
2018-10-19T10:40:05.682Z,17.40
2018-10-19T10:42:33.419Z,17.40
2018-10-19T10:45:01.231Z,17.40
2018-10-19T10:47:29.246Z,17.40
2018-10-19T10:49:57.178Z,17.40
2018-10-19T10:52:24.879Z,17.50
2018-10-19T10:54:52.829Z,17.50
2018-10-19T10:57:20.791Z,17.50
2018-10-19T10:59:48.800Z,17.50
2018-10-19T11:02:16.631Z,17.60
2018-10-19T11:04:44.375Z,17.60
2018-10-19T11:07:12.540Z,17.60
2018-10-19T11:09:40.687Z,17.60
2018-10-19T11:12:08.570Z,17.60
2018-10-19T11:14:36.633Z,17.60
2018-10-19T11:17:04.645Z,17.50
2018-10-19T11:19:32.593Z,17.60
2018-10-19T11:22:00.390Z,17.70
2018-10-19T11:24:28.712Z,17.70
2018-10-19T11:26:56.625Z,17.70
2018-10-19T11:29:24.417Z,17.70
2018-10-19T11:31:52.158Z,17.70
2018-10-19T11:34:20.268Z,17.70
2018-10-19T11:36:48.129Z,17.70
2018-10-19T11:39:16.020Z,17.80
2018-10-19T11:41:44.138Z,17.80
2018-10-19T11:44:11.931Z,17.80
2018-10-19T11:46:39.828Z,17.80
2018-10-19T11:49:07.762Z,17.90
2018-10-19T11:51:36.001Z,17.80
2018-10-19T11:54:05.298Z,17.90
2018-10-19T11:56:33.304Z,17.90
2018-10-19T11:59:01.134Z,17.90
2018-10-19T12:01:29.054Z,17.90
2018-10-19T12:03:57.061Z,17.90
2018-10-19T12:06:24.792Z,17.90
2018-10-19T12:08:52.627Z,17.90
2018-10-19T12:11:20.481Z,17.90
2018-10-19T12:13:48.486Z,17.90
2018-10-19T12:16:16.446Z,17.60
2018-10-19T12:18:44.273Z,17.90
2018-10-19T12:21:12.637Z,17.90
2018-10-19T12:23:40.711Z,17.90
2018-10-19T12:26:08.685Z,17.90
2018-10-19T12:28:36.602Z,18.00
2018-10-19T12:31:04.499Z,18.00
2018-10-19T12:33:32.464Z,18.00
2018-10-19T12:36:00.502Z,18.10
2018-10-19T12:38:28.548Z,18.10
2018-10-19T12:40:56.307Z,18.10
2018-10-19T12:43:24.182Z,18.20
2018-10-19T12:46:32.755Z,18.00
2018-10-19T12:49:00.928Z,18.20
2018-10-19T12:51:28.832Z,18.20
2018-10-19T12:53:56.958Z,18.20
2018-10-19T12:56:25.845Z,18.20
2018-10-19T12:58:55.122Z,18.20
2018-10-19T13:01:24.494Z,18.20
2018-10-19T13:03:52.947Z,18.20
2018-10-19T13:06:21.196Z,18.20
2018-10-19T13:08:49.329Z,18.20
2018-10-19T13:11:17.235Z,18.20
2018-10-19T13:13:45.276Z,18.30
2018-10-19T13:16:13.104Z,18.30
2018-10-19T13:18:41.878Z,18.30
2018-10-19T13:21:11.251Z,18.30
2018-10-19T13:23:39.436Z,18.40
2018-10-19T13:26:07.243Z,18.40
2018-10-19T13:28:35.239Z,18.40
2018-10-19T13:31:03.067Z,18.40
2018-10-19T13:33:30.942Z,18.40
2018-10-19T13:35:59.041Z,18.50
2018-10-19T13:38:26.908Z,18.50
2018-10-19T13:40:55.474Z,18.50
2018-10-19T13:43:24.014Z,18.50
2018-10-19T13:45:52.413Z,18.40
2018-10-19T13:48:20.866Z,18.50
2018-10-19T13:50:49.007Z,18.10
2018-10-19T13:53:17.138Z,18.40
2018-10-19T13:55:45.324Z,18.40
2018-10-19T13:58:13.554Z,18.40
2018-10-19T14:00:41.304Z,18.40
2018-10-19T14:03:09.429Z,18.40
2018-10-19T14:05:37.511Z,18.40
2018-10-19T14:08:05.810Z,18.30
2018-10-19T14:10:33.838Z,18.30
2018-10-19T14:13:01.896Z,18.30
2018-10-19T14:15:29.877Z,18.40
2018-10-19T14:17:57.844Z,18.40
2018-10-19T14:20:25.777Z,18.40
2018-10-19T14:22:53.828Z,18.50
2018-10-19T14:25:21.785Z,18.40
2018-10-19T14:27:51.383Z,18.40
2018-10-19T14:30:21.029Z,18.50
2018-10-19T14:32:49.645Z,18.50
2018-10-19T14:35:17.937Z,18.50
2018-10-19T14:37:46.530Z,18.50
2018-10-19T14:40:15.713Z,18.50
2018-10-19T14:42:44.439Z,18.50
2018-10-19T14:45:13.314Z,18.40
2018-10-19T14:47:41.855Z,18.40
2018-10-19T14:50:11.603Z,18.40
2018-10-19T14:52:39.481Z,18.50
2018-10-19T14:55:09.695Z,18.40
2018-10-19T14:57:37.709Z,18.40
2018-10-19T15:00:07.456Z,18.40
2018-10-19T15:02:35.451Z,18.40
2018-10-19T15:05:03.692Z,18.40
2018-10-19T15:07:31.891Z,18.40
2018-10-19T15:09:59.908Z,18.40
2018-10-19T15:12:29.973Z,18.10
2018-10-19T15:14:58.139Z,18.40
2018-10-19T15:17:26.450Z,18.40
2018-10-19T15:19:54.211Z,18.40
2018-10-19T15:22:22.613Z,18.40
2018-10-19T15:24:50.994Z,18.30
2018-10-19T15:27:19.160Z,18.40
2018-10-19T15:29:47.403Z,18.30
2018-10-19T15:32:16.246Z,18.30
2018-10-19T15:34:44.956Z,18.30
2018-10-19T15:37:12.841Z,18.30
2018-10-19T15:39:40.762Z,18.30
2018-10-19T15:42:09.268Z,18.30
2018-10-19T15:44:37.385Z,18.20
2018-10-19T15:47:05.405Z,18.20
2018-10-19T15:49:33.438Z,18.20
2018-10-19T15:52:01.379Z,18.20
2018-10-19T15:54:29.171Z,18.20
2018-10-19T15:56:57.372Z,18.20
2018-10-19T15:59:25.056Z,18.10
2018-10-19T16:01:53.225Z,18.20
2018-10-19T16:04:21.517Z,18.10
2018-10-19T16:06:49.528Z,18.10
2018-10-19T16:09:17.633Z,18.10
2018-10-19T16:11:45.949Z,18.10
2018-10-19T16:14:14.144Z,18.00
2018-10-19T16:16:43.878Z,18.10
2018-10-19T16:19:11.809Z,18.00
2018-10-19T16:21:39.641Z,18.00
2018-10-19T16:24:07.488Z,18.00
2018-10-19T16:26:35.510Z,18.00
2018-10-19T16:29:03.673Z,18.00
2018-10-19T16:31:31.518Z,18.00
2018-10-19T16:33:59.308Z,18.00
2018-10-19T16:36:27.469Z,18.00
2018-10-19T16:38:55.595Z,18.00
2018-10-19T16:41:23.663Z,18.00
2018-10-19T16:43:51.622Z,18.00
2018-10-19T16:46:19.987Z,18.00
2018-10-19T16:48:48.005Z,18.00
2018-10-19T16:51:16.365Z,18.00
2018-10-19T16:53:44.536Z,18.00
2018-10-19T16:56:12.833Z,18.00
2018-10-19T16:58:41.095Z,18.00
2018-10-19T17:01:09.110Z,18.00
2018-10-19T17:03:36.914Z,18.00
2018-10-19T17:06:05.893Z,18.00
2018-10-19T17:08:34.818Z,17.90
2018-10-19T17:11:02.803Z,17.90
2018-10-19T17:13:30.858Z,17.90
2018-10-19T17:15:59.002Z,17.90
2018-10-19T17:18:26.987Z,17.90
2018-10-19T17:20:55.345Z,17.90
2018-10-19T17:23:23.019Z,17.90
2018-10-19T17:25:51.338Z,17.90
2018-10-19T17:28:19.089Z,17.90
2018-10-19T17:30:47.464Z,17.80
2018-10-19T17:33:15.126Z,17.90
2018-10-19T17:35:43.271Z,17.80
2018-10-19T17:38:11.384Z,17.80
2018-10-19T17:40:39.299Z,17.80
2018-10-19T17:43:07.268Z,17.80
2018-10-19T17:45:35.310Z,17.80
2018-10-19T17:48:03.211Z,17.80
2018-10-19T17:50:31.411Z,17.80
2018-10-19T17:52:59.475Z,17.80
2018-10-19T17:55:27.516Z,17.80
2018-10-19T17:57:55.602Z,17.80
2018-10-19T18:00:23.547Z,17.80
2018-10-19T18:02:51.607Z,17.80
2018-10-19T18:05:19.500Z,17.80
2018-10-19T18:07:47.820Z,17.70
2018-10-19T18:10:15.629Z,17.70
2018-10-19T18:12:43.345Z,17.70
2018-10-19T18:15:11.601Z,17.70
2018-10-19T18:17:39.577Z,17.70
2018-10-19T18:20:07.585Z,17.70
2018-10-19T18:22:35.860Z,17.70
2018-10-19T18:25:08.064Z,17.70
2018-10-19T18:27:35.846Z,17.70
2018-10-19T18:30:04.767Z,17.60
2018-10-19T18:32:32.491Z,17.60
2018-10-19T18:35:00.761Z,17.60
2018-10-19T18:37:28.795Z,17.60
2018-10-19T18:39:56.482Z,17.60
2018-10-19T18:42:24.819Z,17.60
2018-10-19T18:44:52.762Z,17.50
2018-10-19T18:47:21.068Z,17.60
2018-10-19T18:49:48.854Z,17.50
2018-10-19T18:52:16.974Z,17.50
2018-10-19T18:54:44.740Z,17.50
2018-10-19T18:57:13.119Z,17.50
2018-10-19T18:59:41.018Z,17.50
2018-10-19T19:02:09.082Z,17.50
2018-10-19T19:04:36.809Z,17.40
2018-10-19T19:07:05.442Z,17.40
2018-10-19T19:09:33.372Z,17.40
2018-10-19T19:12:01.251Z,17.40
2018-10-19T19:14:28.972Z,17.30
2018-10-19T19:16:56.887Z,17.30
2018-10-19T19:19:24.879Z,17.30
2018-10-19T19:21:52.797Z,17.30
2018-10-19T19:24:26.502Z,17.20
2018-10-19T19:26:54.670Z,17.20
2018-10-19T19:29:22.543Z,17.20
2018-10-19T19:31:50.395Z,17.20
2018-10-19T19:34:36.137Z,17.10
2018-10-19T19:37:04.488Z,17.10
2018-10-19T19:39:32.937Z,17.10
2018-10-19T19:42:06.732Z,17.10
2018-10-19T19:44:34.671Z,17.10
2018-10-19T19:47:02.717Z,17.00
2018-10-19T19:49:34.714Z,17.00
2018-10-19T19:52:02.553Z,16.90
2018-10-19T19:54:30.926Z,16.90
2018-10-19T19:56:58.897Z,16.90
2018-10-19T19:59:26.857Z,16.90
2018-10-19T20:01:54.741Z,16.90
2018-10-19T20:04:22.471Z,16.80
2018-10-19T20:06:50.451Z,16.80
2018-10-19T20:09:18.400Z,16.80
2018-10-19T20:11:46.777Z,16.80
2018-10-19T20:14:14.504Z,16.70
2018-10-19T20:16:42.516Z,16.70
2018-10-19T20:19:10.448Z,16.70
2018-10-19T20:21:38.876Z,16.70
2018-10-19T20:24:06.838Z,16.70
2018-10-19T20:26:34.931Z,16.70
2018-10-19T20:29:03.149Z,16.60
2018-10-19T20:31:31.046Z,16.60
2018-10-19T20:33:59.092Z,16.60
2018-10-19T20:36:26.793Z,16.60
2018-10-19T20:38:54.612Z,16.60
2018-10-19T20:41:28.540Z,16.50
2018-10-19T20:43:56.590Z,16.50
2018-10-19T20:46:24.663Z,16.50
2018-10-19T20:48:52.389Z,16.50
2018-10-19T20:51:20.527Z,16.50
2018-10-19T20:53:48.823Z,16.40
2018-10-19T20:56:16.684Z,16.40
2018-10-19T20:58:44.429Z,16.40
2018-10-19T21:01:12.413Z,16.30
2018-10-19T21:03:40.495Z,16.30
2018-10-19T21:06:08.345Z,16.30
2018-10-19T21:08:36.261Z,16.30
2018-10-19T21:11:04.006Z,16.30
2018-10-19T21:13:32.067Z,16.20
2018-10-19T21:15:59.818Z,16.20
2018-10-19T21:18:27.670Z,16.20
2018-10-19T21:20:55.626Z,16.10
2018-10-19T21:23:23.505Z,16.10
2018-10-19T21:25:51.125Z,16.10
2018-10-19T21:28:18.858Z,16.10
2018-10-19T21:30:46.657Z,16.00
2018-10-19T21:33:14.656Z,16.10
2018-10-19T21:35:42.512Z,16.00
2018-10-19T21:38:10.570Z,16.00
2018-10-19T21:40:38.284Z,16.00
2018-10-19T21:43:06.119Z,16.00
2018-10-19T21:45:33.730Z,16.00
2018-10-19T21:48:01.928Z,15.90
2018-10-19T21:50:29.688Z,15.90
2018-10-19T21:52:57.750Z,15.90
2018-10-19T21:55:25.960Z,15.90
2018-10-19T21:57:53.649Z,15.80
2018-10-19T22:00:22.145Z,15.80
2018-10-19T22:02:49.908Z,15.80
2018-10-19T22:05:17.812Z,15.80
2018-10-19T22:07:46.204Z,15.80
2018-10-19T22:10:14.190Z,15.70
2018-10-19T22:12:41.865Z,15.70
2018-10-19T22:15:10.405Z,15.70
2018-10-19T22:17:38.320Z,15.70
2018-10-19T22:20:06.791Z,15.60
2018-10-19T22:22:34.498Z,15.60
2018-10-19T22:25:02.641Z,15.60
2018-10-19T22:27:30.390Z,15.60
2018-10-19T22:29:58.261Z,15.60
2018-10-19T22:32:25.899Z,15.60
2018-10-19T22:34:53.657Z,15.50
2018-10-19T22:37:21.731Z,15.60
2018-10-19T22:39:49.748Z,15.50
2018-10-19T22:42:17.373Z,15.50
2018-10-19T22:44:46.437Z,15.50
2018-10-19T22:47:14.140Z,15.40
2018-10-19T22:49:41.837Z,15.50
2018-10-19T22:52:09.904Z,15.40
2018-10-19T22:54:37.595Z,15.40
2018-10-19T22:57:05.523Z,15.40
2018-10-19T22:59:33.530Z,15.30
2018-10-19T23:02:01.297Z,15.30
2018-10-19T23:04:29.192Z,15.30
2018-10-19T23:06:56.917Z,15.30
2018-10-19T23:09:24.887Z,15.30
2018-10-19T23:11:52.950Z,15.20
2018-10-19T23:14:20.584Z,15.20
2018-10-19T23:16:48.239Z,15.20
2018-10-19T23:19:16.232Z,15.20
2018-10-19T23:21:44.268Z,15.10
2018-10-19T23:24:12.214Z,15.10
2018-10-19T23:26:39.918Z,15.10
2018-10-19T23:29:07.966Z,15.00
2018-10-19T23:31:36.265Z,15.10
2018-10-19T23:34:03.952Z,15.00
2018-10-19T23:36:31.695Z,15.00
2018-10-19T23:38:59.772Z,15.00
2018-10-19T23:41:27.587Z,15.00
2018-10-19T23:43:55.387Z,15.00
2018-10-19T23:46:23.228Z,14.90
2018-10-19T23:48:50.937Z,14.90
2018-10-19T23:51:18.925Z,14.90
2018-10-19T23:53:46.652Z,14.90
2018-10-19T23:56:14.578Z,14.90
2018-10-19T23:58:42.531Z,14.80
